Time;durP1;ratioP1;P1;durP2;ratioP2;P2;SDS_P1;SDS_P2;PMS_P1;PMS_P2;Temp;Humidity;BMP_temperature;BMP_pressure;BME280_temperature;BME280_humidity;BME280_pressure;Samples;Min_cycle;Max_cycle;Signal;HPM_P1;HPM_P2
2022/06/30 00:00:35;;;;;;;27.70;21.83;;;24.50;65.90;;;;;;5042738;28;20029;-55
2022/06/30 00:03:01;;;;;;;24.33;20.73;;;24.50;66.10;;;;;;5009052;28;20037;-56
2022/06/30 00:05:26;;;;;;;22.90;20.50;;;24.50;66.10;;;;;;5023807;28;20037;-53
2022/06/30 00:07:52;;;;;;;24.02;21.15;;;24.50;65.90;;;;;;5037536;28;20040;-51
2022/06/30 00:10:17;;;;;;;22.48;19.77;;;24.50;65.90;;;;;;5042601;28;20488;-57
2022/06/30 00:12:43;;;;;;;23.17;20.00;;;24.50;65.70;;;;;;5031467;28;20057;-55
2022/06/30 00:15:09;;;;;;;23.90;20.50;;;24.50;66.20;;;;;;5022828;28;20199;-53
2022/06/30 00:17:34;;;;;;;26.45;20.27;;;24.50;66.50;;;;;;5034330;28;20086;-53
2022/06/30 00:20:00;;;;;;;22.58;20.20;;;24.50;66.50;;;;;;5008200;28;20513;-54
2022/06/30 00:22:25;;;;;;;22.00;19.70;;;24.50;66.50;;;;;;5034467;28;20028;-54
2022/06/30 00:24:52;;;;;;;22.67;20.48;;;24.50;66.50;;;;;;5023647;28;20485;-54
2022/06/30 00:27:17;;;;;;;23.55;21.02;;;24.50;66.60;;;;;;4995817;28;20702;-53
2022/06/30 00:29:43;;;;;;;23.40;21.00;;;24.50;66.60;;;;;;5042844;28;20098;-53
2022/06/30 00:32:08;;;;;;;23.17;20.88;;;24.50;67.40;;;;;;5038197;28;20492;-58
2022/06/30 00:34:34;;;;;;;23.13;20.60;;;24.50;66.80;;;;;;5022641;28;20046;-53
2022/06/30 00:37:00;;;;;;;25.02;22.42;;;24.40;66.60;;;;;;5026471;28;20755;-52
2022/06/30 00:39:26;;;;;;;24.38;19.77;;;24.50;66.70;;;;;;5024574;28;20033;-55
2022/06/30 00:41:51;;;;;;;22.75;20.35;;;24.50;66.50;;;;;;5041745;28;20029;-51
2022/06/30 00:44:17;;;;;;;23.50;21.00;;;24.50;66.40;;;;;;5022856;28;20091;-56
2022/06/30 00:46:42;;;;;;;24.13;21.52;;;24.50;66.70;;;;;;5005956;28;20105;-58
2022/06/30 00:49:08;;;;;;;25.60;23.05;;;24.50;66.70;;;;;;5022238;28;20064;-51
2022/06/30 00:51:33;;;;;;;24.10;21.33;;;24.40;66.70;;;;;;4988670;28;20519;-56
2022/06/30 00:54:01;;;;;;;23.88;21.38;;;24.40;66.60;;;;;;5006464;28;20029;-53
2022/06/30 00:56:27;;;;;;;24.55;22.05;;;24.40;66.70;;;;;;5042533;28;20033;-57
2022/06/30 00:58:53;;;;;;;24.98;22.42;;;24.40;66.80;;;;;;5026873;28;20025;-53
2022/06/30 01:01:19;;;;;;;24.77;22.35;;;24.40;66.90;;;;;;4991257;28;20136;-57
2022/06/30 01:03:44;;;;;;;30.30;23.95;;;24.40;66.80;;;;;;5023268;28;20117;-53
2022/06/30 01:06:10;;;;;;;25.02;22.52;;;24.40;67.10;;;;;;5028034;28;20075;-58
2022/06/30 01:08:35;;;;;;;26.23;23.58;;;24.40;67.00;;;;;;4996719;28;20513;-57
2022/06/30 01:13:46;;;;;;;26.87;23.90;;;24.40;67.20;;;;;;5017984;28;20047;-54
2022/06/30 01:16:11;;;;;;;24.95;22.33;;;24.40;67.10;;;;;;5029074;28;20026;-55
2022/06/30 01:18:37;;;;;;;27.80;24.27;;;24.40;66.90;;;;;;5017057;28;20032;-51
2022/06/30 01:21:03;;;;;;;27.00;24.10;;;24.40;67.00;;;;;;5008217;28;20108;-56
2022/06/30 01:23:28;;;;;;;27.10;22.67;;;24.40;67.10;;;;;;5017465;28;20053;-54
2022/06/30 01:25:54;;;;;;;27.98;24.98;;;24.40;67.20;;;;;;5045984;28;20083;-54
2022/06/30 01:28:19;;;;;;;29.15;25.20;;;24.30;67.30;;;;;;5021331;28;20030;-54
2022/06/30 01:30:45;;;;;;;26.80;23.85;;;24.30;67.10;;;;;;5008035;28;20656;-60
2022/06/30 01:33:10;;;;;;;26.35;23.65;;;24.30;67.40;;;;;;5031459;28;20059;-55
2022/06/30 01:35:36;;;;;;;26.38;23.70;;;24.30;67.00;;;;;;5028120;28;20033;-58
2022/06/30 01:38:01;;;;;;;29.25;24.27;;;24.40;67.00;;;;;;5042567;28;20080;-58
2022/06/30 01:40:31;;;;;;;26.15;23.35;;;24.30;67.10;;;;;;4991741;28;20030;-52
2022/06/30 01:42:56;;;;;;;28.33;25.05;;;24.30;67.40;;;;;;5010844;28;20033;-54
2022/06/30 01:45:22;;;;;;;26.75;23.85;;;24.30;67.10;;;;;;5045895;28;20068;-58
2022/06/30 01:47:48;;;;;;;30.98;26.90;;;24.30;67.40;;;;;;5011139;28;20037;-57
2022/06/30 01:50:15;;;;;;;28.65;25.55;;;24.30;67.50;;;;;;4988353;28;20034;-56
2022/06/30 01:52:41;;;;;;;31.67;26.67;;;24.20;67.50;;;;;;4988926;28;20034;-53
2022/06/30 01:55:07;;;;;;;33.72;27.23;;;24.30;67.40;;;;;;5008630;28;20029;-51
2022/06/30 01:57:33;;;;;;;33.35;27.55;;;24.20;67.50;;;;;;5008261;28;20029;-54
2022/06/30 01:59:59;;;;;;;29.25;25.15;;;24.20;67.30;;;;;;4988220;28;20050;-54
2022/06/30 02:02:24;;;;;;;30.10;24.60;;;24.20;66.90;;;;;;5006035;28;20065;-52
2022/06/30 02:04:51;;;;;;;29.52;24.83;;;24.20;67.00;;;;;;5035295;28;20029;-51
2022/06/30 02:07:19;;;;;;;30.23;26.02;;;24.30;67.60;;;;;;5045584;28;20029;-51
2022/06/30 02:09:45;;;;;;;28.40;24.17;;;24.30;67.60;;;;;;5013815;28;20067;-60
2022/06/30 02:14:55;;;;;;;30.10;25.85;;;24.20;67.30;;;;;;5038655;28;20032;-57
2022/06/30 02:17:21;;;;;;;29.85;26.60;;;24.20;67.40;;;;;;5010854;28;20444;-54
2022/06/30 02:19:47;;;;;;;31.65;25.38;;;24.20;67.30;;;;;;5032731;28;20052;-53
2022/06/30 02:22:12;;;;;;;35.15;27.08;;;24.20;68.00;;;;;;5025783;28;20041;-53
2022/06/30 02:24:38;;;;;;;31.17;26.73;;;24.20;67.70;;;;;;5035270;28;20025;-57
2022/06/30 02:27:03;;;;;;;32.53;26.38;;;24.20;67.70;;;;;;5027268;28;20036;-56
2022/06/30 02:29:29;;;;;;;30.60;26.08;;;24.20;67.50;;;;;;5018122;28;20551;-53
2022/06/30 02:31:54;;;;;;;34.00;26.67;;;24.20;67.70;;;;;;5024932;28;20120;-53
2022/06/30 02:34:20;;;;;;;35.35;27.50;;;24.20;67.60;;;;;;5031281;28;20111;-57
2022/06/30 02:36:45;;;;;;;38.80;28.75;;;24.20;66.70;;;;;;5044877;28;20033;-58
2022/06/30 02:39:11;;;;;;;41.45;30.70;;;24.10;67.80;;;;;;5039601;28;20505;-53
2022/06/30 02:41:36;;;;;;;35.85;28.13;;;24.10;67.90;;;;;;5007167;28;20485;-55
2022/06/30 02:44:02;;;;;;;35.58;27.67;;;24.10;67.80;;;;;;5008846;28;20033;-51
2022/06/30 02:46:28;;;;;;;42.88;29.33;;;24.10;67.60;;;;;;5026826;28;20040;-52
2022/06/30 02:48:53;;;;;;;38.35;28.02;;;24.10;68.20;;;;;;5042770;28;20029;-55
2022/06/30 02:51:19;;;;;;;40.03;28.63;;;24.10;68.10;;;;;;5023966;28;20083;-57
2022/06/30 02:53:44;;;;;;;34.63;27.13;;;24.10;67.50;;;;;;5006772;28;20136;-53
2022/06/30 02:56:11;;;;;;;34.78;26.50;;;24.10;67.80;;;;;;5024848;28;20114;-54
2022/06/30 02:58:37;;;;;;;37.55;27.67;;;24.10;67.40;;;;;;5043072;28;20029;-52
2022/06/30 03:01:02;;;;;;;33.67;26.45;;;24.10;68.10;;;;;;5026892;28;20038;-56
2022/06/30 03:03:28;;;;;;;33.47;26.00;;;24.10;67.40;;;;;;5023820;28;20044;-53
2022/06/30 03:05:53;;;;;;;36.55;28.63;;;24.10;67.60;;;;;;5038873;28;20860;-56
2022/06/30 03:08:19;;;;;;;35.45;27.65;;;24.10;67.70;;;;;;5043300;28;20037;-49
2022/06/30 03:10:44;;;;;;;34.60;25.88;;;24.10;67.60;;;;;;5030850;28;20052;-56
2022/06/30 03:13:10;;;;;;;35.40;25.75;;;24.10;67.80;;;;;;5022973;28;20033;-55
2022/06/30 03:15:36;;;;;;;35.28;26.95;;;24.10;67.30;;;;;;5034495;28;20140;-52
2022/06/30 03:18:01;;;;;;;35.13;26.80;;;24.10;67.50;;;;;;5043171;28;20029;-51
2022/06/30 03:20:27;;;;;;;30.98;24.50;;;24.10;67.40;;;;;;5033239;28;20260;-54
2022/06/30 03:22:52;;;;;;;32.70;25.67;;;24.10;67.50;;;;;;5005317;28;20056;-50
2022/06/30 03:25:18;;;;;;;31.17;24.15;;;24.10;67.90;;;;;;5030855;28;20028;-53
2022/06/30 03:27:43;;;;;;;36.58;27.52;;;24.10;67.50;;;;;;5043199;28;20025;-51
2022/06/30 03:30:09;;;;;;;33.15;23.40;;;24.10;67.50;;;;;;5037616;28;20033;-56
2022/06/30 03:32:35;;;;;;;33.00;26.05;;;24.20;67.30;;;;;;5022969;28;20036;-57
2022/06/30 03:35:01;;;;;;;33.58;24.92;;;24.10;67.20;;;;;;5034699;28;20025;-54
2022/06/30 03:37:26;;;;;;;33.63;25.05;;;24.20;67.10;;;;;;5044134;28;20408;-52
2022/06/30 03:39:51;;;;;;;34.58;26.27;;;24.10;67.70;;;;;;5041268;28;20067;-54
2022/06/30 03:42:17;;;;;;;36.38;26.08;;;24.20;67.60;;;;;;5024264;28;20488;-54
2022/06/30 03:44:43;;;;;;;32.67;25.38;;;24.10;68.20;;;;;;5007132;28;20060;-54
2022/06/30 03:47:08;;;;;;;33.63;25.77;;;24.10;67.80;;;;;;5043715;28;20027;-52
2022/06/30 03:49:34;;;;;;;33.97;26.23;;;24.10;67.20;;;;;;5043154;28;20033;-55
2022/06/30 03:51:59;;;;;;;36.25;26.45;;;24.10;67.60;;;;;;5025469;28;20447;-57
2022/06/30 03:54:25;;;;;;;31.63;24.15;;;24.10;67.90;;;;;;5023608;28;20080;-54
2022/06/30 03:56:50;;;;;;;33.35;24.88;;;24.10;67.60;;;;;;5021818;28;20033;-51
2022/06/30 03:59:16;;;;;;;36.22;26.73;;;24.10;67.60;;;;;;4992347;28;20036;-59
2022/06/30 04:01:41;;;;;;;34.60;24.92;;;24.10;67.70;;;;;;5030034;28;20033;-52
2022/06/30 04:04:07;;;;;;;30.63;24.38;;;24.10;67.30;;;;;;5023278;28;20093;-52
2022/06/30 04:06:32;;;;;;;35.63;25.48;;;24.10;67.40;;;;;;5036422;28;20033;-58
2022/06/30 04:08:58;;;;;;;34.38;24.27;;;24.10;67.30;;;;;;5042516;28;20507;-56
2022/06/30 04:11:23;;;;;;;36.30;26.40;;;24.10;67.50;;;;;;5031727;28;20057;-52
2022/06/30 04:13:49;;;;;;;33.88;25.63;;;24.10;67.60;;;;;;5032047;28;20029;-57
2022/06/30 04:16:14;;;;;;;42.08;28.73;;;24.10;67.70;;;;;;5042698;28;20033;-55
2022/06/30 04:18:40;;;;;;;50.13;32.60;;;24.10;68.30;;;;;;5042577;28;20734;-54
2022/06/30 04:21:05;;;;;;;56.50;35.45;;;24.10;69.20;;;;;;5019151;28;20092;-55
2022/06/30 04:23:31;;;;;;;54.92;34.97;;;23.90;69.50;;;;;;5005735;28;20079;-52
2022/06/30 04:25:56;;;;;;;53.55;35.22;;;23.90;69.70;;;;;;5010053;28;20029;-52
2022/06/30 04:28:22;;;;;;;63.78;36.58;;;23.90;70.10;;;;;;5042937;28;20719;-54
2022/06/30 04:33:32;;;;;;;66.47;39.22;;;23.90;70.10;;;;;;5022698;28;20057;-59
2022/06/30 04:35:57;;;;;;;59.17;36.83;;;23.90;70.10;;;;;;5029102;28;20529;-53
2022/06/30 04:38:22;;;;;;;64.82;38.92;;;23.90;70.30;;;;;;5012234;28;20041;-56
2022/06/30 04:43:32;;;;;;;67.60;37.40;;;23.90;70.70;;;;;;5027321;28;20612;-53
2022/06/30 04:45:58;;;;;;;63.45;38.45;;;23.90;70.30;;;;;;5028684;28;20120;-54
2022/06/30 04:48:23;;;;;;;64.15;38.35;;;23.90;70.10;;;;;;5046477;28;20039;-58
2022/06/30 04:50:49;;;;;;;63.67;37.38;;;23.90;70.30;;;;;;5028348;28;20434;-52
2022/06/30 04:53:14;;;;;;;60.10;37.92;;;23.90;70.40;;;;;;5027241;28;20030;-53
2022/06/30 04:55:40;;;;;;;58.05;36.47;;;23.90;70.30;;;;;;5026973;28;20030;-54
2022/06/30 04:58:05;;;;;;;55.03;36.03;;;23.90;70.30;;;;;;5026674;28;20121;-56
2022/06/30 05:00:31;;;;;;;60.15;36.78;;;23.90;70.50;;;;;;5046124;28;20052;-58
2022/06/30 05:02:57;;;;;;;58.40;37.50;;;23.90;70.70;;;;;;5030467;28;20085;-53
2022/06/30 05:05:22;;;;;;;55.55;35.40;;;23.90;70.60;;;;;;4992775;28;20069;-53
2022/06/30 05:07:48;;;;;;;46.90;31.23;;;23.90;70.50;;;;;;5040146;28;20033;-58
2022/06/30 05:10:13;;;;;;;49.08;31.77;;;23.90;70.10;;;;;;5046711;28;20079;-56
2022/06/30 05:12:39;;;;;;;47.90;29.02;;;23.90;70.30;;;;;;5034745;28;20117;-55
2022/06/30 05:15:05;;;;;;;51.03;28.17;;;24.00;70.00;;;;;;5026770;28;20029;-57
2022/06/30 05:17:33;;;;;;;43.97;28.17;;;24.00;70.10;;;;;;5019190;28;20036;-54
2022/06/30 05:19:59;;;;;;;42.60;26.55;;;23.90;70.00;;;;;;5045403;28;20043;-51
2022/06/30 05:22:25;;;;;;;59.08;28.52;;;23.90;69.90;;;;;;5037424;28;20037;-54
2022/06/30 05:27:34;;;;;;;42.88;27.05;;;23.80;70.40;;;;;;5033472;28;20028;-58
2022/06/30 05:30:00;;;;;;;39.33;24.95;;;23.90;70.10;;;;;;5045125;28;20033;-54
2022/06/30 05:32:26;;;;;;;41.10;25.38;;;23.90;70.10;;;;;;5038241;28;20092;-54
2022/06/30 05:34:51;;;;;;;41.30;25.35;;;23.90;70.10;;;;;;5025931;28;20021;-54
2022/06/30 05:37:17;;;;;;;41.67;26.05;;;23.90;70.20;;;;;;5031622;28;20450;-53
2022/06/30 05:39:42;;;;;;;39.70;23.60;;;23.90;70.10;;;;;;5045199;28;20499;-57
2022/06/30 05:42:08;;;;;;;34.05;25.02;;;23.90;70.10;;;;;;5041861;28;20072;-50
2022/06/30 05:44:33;;;;;;;31.60;24.13;;;23.90;69.90;;;;;;5025400;28;20116;-52
2022/06/30 05:46:59;;;;;;;34.70;24.85;;;23.90;70.10;;;;;;5026298;28;20064;-57
2022/06/30 05:49:24;;;;;;;33.47;23.23;;;23.90;70.00;;;;;;5044344;28;20523;-55
2022/06/30 05:51:50;;;;;;;32.70;23.13;;;23.90;70.40;;;;;;5044915;28;20029;-55
2022/06/30 05:54:16;;;;;;;27.13;21.85;;;23.90;69.90;;;;;;5026307;28;20036;-54
2022/06/30 05:56:41;;;;;;;31.27;23.17;;;23.90;69.70;;;;;;5025507;28;20487;-58
2022/06/30 05:59:06;;;;;;;27.05;21.70;;;23.90;69.80;;;;;;5042039;28;21662;-57
2022/06/30 06:01:32;;;;;;;29.27;22.48;;;23.90;69.90;;;;;;5039796;28;20084;-57
2022/06/30 06:03:57;;;;;;;29.05;23.15;;;23.90;70.10;;;;;;5025062;28;20061;-55
2022/06/30 06:06:23;;;;;;;36.05;22.70;;;23.90;69.90;;;;;;5025864;28;20566;-53
2022/06/30 06:08:48;;;;;;;31.95;22.20;;;23.90;70.10;;;;;;5006695;28;20516;-56
2022/06/30 06:11:14;;;;;;;40.05;25.85;;;23.90;70.00;;;;;;5025676;28;20029;-55
2022/06/30 06:13:39;;;;;;;47.47;27.58;;;23.90;70.40;;;;;;5036793;28;20036;-54
2022/06/30 06:16:05;;;;;;;49.70;25.70;;;23.90;70.80;;;;;;5044554;28;20029;-51
2022/06/30 06:18:30;;;;;;;56.30;27.48;;;23.90;70.50;;;;;;5032975;28;20448;-56
2022/06/30 06:20:56;;;;;;;47.63;25.42;;;23.90;70.50;;;;;;5023911;28;20038;-57
2022/06/30 06:23:22;;;;;;;43.75;25.60;;;23.90;70.30;;;;;;5033174;28;20420;-56
2022/06/30 06:25:47;;;;;;;41.78;26.75;;;23.90;70.10;;;;;;5044827;28;20044;-59
2022/06/30 06:30:57;;;;;;;47.28;26.75;;;23.90;70.70;;;;;;5024446;28;20056;-54
2022/06/30 06:33:22;;;;;;;45.05;25.83;;;23.70;70.90;;;;;;5031530;28;20056;-53
2022/06/30 06:35:48;;;;;;;39.65;25.75;;;23.80;70.60;;;;;;5026993;28;20391;-54
2022/06/30 06:38:13;;;;;;;36.88;22.98;;;23.80;70.40;;;;;;5039914;28;20044;-51
2022/06/30 06:40:39;;;;;;;34.88;24.88;;;23.90;70.40;;;;;;5024390;28;20029;-56
2022/06/30 06:43:04;;;;;;;40.60;25.95;;;23.90;70.50;;;;;;5009643;28;20082;-57
2022/06/30 06:45:30;;;;;;;37.78;24.05;;;23.80;71.10;;;;;;5044996;28;20031;-51
2022/06/30 06:47:56;;;;;;;36.00;22.42;;;23.90;70.70;;;;;;5008888;28;20134;-52
2022/06/30 06:50:21;;;;;;;33.75;22.88;;;23.90;70.30;;;;;;5024023;28;20026;-56
2022/06/30 06:52:47;;;;;;;32.08;22.40;;;23.90;70.30;;;;;;5025167;28;20025;-53
2022/06/30 06:55:12;;;;;;;36.70;23.73;;;23.90;70.20;;;;;;5044550;28;20487;-56
2022/06/30 06:57:39;;;;;;;37.42;25.65;;;23.90;70.50;;;;;;5029060;28;20088;-56
2022/06/30 07:00:08;;;;;;;34.33;20.67;;;23.90;70.80;;;;;;5044871;28;20168;-57
2022/06/30 07:02:34;;;;;;;35.17;21.10;;;23.90;70.30;;;;;;5044769;28;20033;-55
2022/06/30 07:04:59;;;;;;;32.17;22.88;;;23.90;69.90;;;;;;5043396;28;20029;-57
2022/06/30 07:07:25;;;;;;;32.17;22.25;;;24.00;70.00;;;;;;5026934;28;20116;-53
2022/06/30 07:09:50;;;;;;;43.50;22.88;;;24.00;69.80;;;;;;5043893;28;20033;-55
2022/06/30 07:12:16;;;;;;;35.10;23.27;;;24.10;71.50;;;;;;5044123;28;20033;-53
2022/06/30 07:14:41;;;;;;;30.98;22.17;;;24.20;69.80;;;;;;5031349;28;20045;-57
2022/06/30 07:17:07;;;;;;;34.58;23.33;;;24.10;70.50;;;;;;5023729;28;20069;-52
2022/06/30 07:19:33;;;;;;;28.73;22.33;;;24.00;70.30;;;;;;5033634;28;20079;-60
2022/06/30 07:21:58;;;;;;;31.02;23.50;;;23.90;71.00;;;;;;5043780;28;20029;-57
2022/06/30 07:24:24;;;;;;;30.83;24.45;;;23.90;70.90;;;;;;5017556;28;20025;-59
2022/06/30 07:26:49;;;;;;;30.90;23.70;;;23.90;70.80;;;;;;5005593;28;20079;-58
2022/06/30 07:29:16;;;;;;;28.50;22.02;;;23.90;71.20;;;;;;5012086;28;20438;-59
2022/06/30 07:31:42;;;;;;;32.72;25.05;;;23.80;71.60;;;;;;5009776;28;20035;-55
2022/06/30 07:34:07;;;;;;;32.75;24.83;;;23.70;72.00;;;;;;5038363;28;20466;-59
2022/06/30 07:36:33;;;;;;;36.08;25.58;;;23.70;71.90;;;;;;5029133;28;20026;-53
2022/06/30 07:38:58;;;;;;;34.17;25.63;;;23.70;72.90;;;;;;5008757;28;20037;-59
2022/06/30 07:41:24;;;;;;;34.28;23.85;;;23.70;72.50;;;;;;5043822;28;20044;-57
2022/06/30 07:43:50;;;;;;;36.33;23.45;;;23.80;72.30;;;;;;5043551;28;20029;-59
2022/06/30 07:46:16;;;;;;;31.30;23.83;;;23.80;71.50;;;;;;5007306;28;20117;-57
2022/06/30 07:48:42;;;;;;;32.13;22.73;;;23.90;71.40;;;;;;5023641;28;20516;-55
2022/06/30 07:51:07;;;;;;;25.65;21.10;;;23.90;71.30;;;;;;5042792;28;20578;-56
2022/06/30 07:53:33;;;;;;;27.25;21.27;;;23.90;71.50;;;;;;5044017;28;20028;-59
2022/06/30 07:55:58;;;;;;;33.60;25.13;;;23.90;71.10;;;;;;5026482;28;20048;-59
2022/06/30 07:58:24;;;;;;;39.25;26.55;;;23.90;71.70;;;;;;5023982;28;20049;-58
2022/06/30 08:00:49;;;;;;;33.75;26.92;;;23.80;71.70;;;;;;5038785;28;20387;-57
2022/06/30 08:03:15;;;;;;;32.97;24.10;;;23.80;71.90;;;;;;5026243;28;20052;-61
2022/06/30 08:05:40;;;;;;;30.75;23.30;;;23.90;71.70;;;;;;5013017;28;20519;-56
2022/06/30 08:08:06;;;;;;;30.92;23.90;;;23.90;71.30;;;;;;5006262;28;20026;-58
2022/06/30 08:10:31;;;;;;;36.67;26.42;;;23.90;71.40;;;;;;5015781;28;20055;-58
2022/06/30 08:12:57;;;;;;;34.50;26.17;;;23.90;71.40;;;;;;5044358;28;20056;-56
2022/06/30 08:15:22;;;;;;;32.15;23.25;;;23.90;71.70;;;;;;5034799;28;20108;-52
2022/06/30 08:17:48;;;;;;;36.80;26.05;;;23.90;71.80;;;;;;5024904;28;20751;-55
2022/06/30 08:20:13;;;;;;;36.60;27.38;;;23.90;71.90;;;;;;5041899;23;20044;-58
2022/06/30 08:22:39;;;;;;;36.13;26.75;;;23.90;72.30;;;;;;5045625;28;20051;-58
2022/06/30 08:25:05;;;;;;;35.42;27.42;;;23.90;71.40;;;;;;5063351;28;20550;-58
2022/06/30 08:27:30;;;;;;;33.53;25.55;;;23.90;72.00;;;;;;5046098;28;20115;-58
2022/06/30 08:29:56;;;;;;;36.88;24.67;;;23.90;71.80;;;;;;5062864;28;20033;-58
2022/06/30 08:32:22;;;;;;;38.75;27.95;;;24.00;71.30;;;;;;5063583;28;20099;-58
2022/06/30 08:34:48;;;;;;;33.22;25.67;;;24.00;72.20;;;;;;5063883;28;20029;-57
2022/06/30 08:37:14;;;;;;;37.97;27.80;;;24.00;72.10;;;;;;5029365;28;20052;-57
2022/06/30 08:42:23;;;;;;;35.83;25.67;;;23.80;72.40;;;;;;5043693;28;20035;-58
2022/06/30 08:45:13;;;;;;;37.17;28.45;;;23.80;72.30;;;;;;5045809;28;20020;-60
2022/06/30 08:47:35;;;;;;;31.63;24.98;;;23.80;72.30;;;;;;5048514;28;20051;-57
2022/06/30 08:50:01;;;;;;;34.45;26.92;;;23.90;71.50;;;;;;5044661;28;20036;-58
2022/06/30 08:52:26;;;;;;;33.35;25.20;;;23.90;72.40;;;;;;5045634;28;20558;-55
2022/06/30 08:54:52;;;;;;;32.72;26.10;;;24.00;71.80;;;;;;5029059;28;20044;-58
2022/06/30 08:57:17;;;;;;;39.38;26.80;;;24.00;71.60;;;;;;5045743;28;20025;-59
2022/06/30 08:59:43;;;;;;;34.80;25.70;;;24.10;71.90;;;;;;5062876;28;20807;-57
2022/06/30 09:02:08;;;;;;;35.40;24.80;;;24.10;71.60;;;;;;5045578;28;20043;-58
2022/06/30 09:04:34;;;;;;;34.03;23.98;;;24.10;71.60;;;;;;5044711;28;20115;-58
2022/06/30 09:06:59;;;;;;;31.65;22.70;;;24.10;71.30;;;;;;5045427;28;20029;-57
2022/06/30 09:09:25;;;;;;;31.63;25.02;;;24.10;71.50;;;;;;5044568;28;20028;-57
2022/06/30 09:11:52;;;;;;;30.33;22.45;;;24.10;71.70;;;;;;5063164;28;20601;-58
2022/06/30 09:14:33;;;;;;;28.67;23.45;;;24.10;71.20;;;;;;5045366;28;20029;-58
2022/06/30 09:16:59;;;;;;;31.77;23.30;;;24.10;71.90;;;;;;5043958;28;20037;-58
2022/06/30 09:19:24;;;;;;;34.97;26.85;;;24.10;71.20;;;;;;5062550;28;20039;-59
2022/06/30 09:22:22;;;;;;;33.08;25.27;;;24.10;71.70;;;;;;5046730;28;20032;-57
2022/06/30 09:24:59;;;;;;;31.25;25.15;;;24.10;71.60;;;;;;4984522;28;20258;-59
2022/06/30 09:27:27;;;;;;;33.60;24.52;;;24.00;71.80;;;;;;5048973;28;20052;-58
2022/06/30 09:29:56;;;;;;;29.58;22.45;;;23.90;71.50;;;;;;5065022;28;20043;-58
2022/06/30 09:32:22;;;;;;;28.77;21.75;;;24.00;71.10;;;;;;5048673;28;20047;-58
2022/06/30 09:34:49;;;;;;;30.05;22.55;;;24.00;70.80;;;;;;5049474;28;20483;-57
2022/06/30 09:37:16;;;;;;;29.38;23.60;;;24.10;70.90;;;;;;5066919;28;20426;-57
2022/06/30 09:39:43;;;;;;;27.70;21.63;;;24.10;70.90;;;;;;5031749;28;20029;-58
2022/06/30 09:42:09;;;;;;;29.83;22.45;;;24.20;71.50;;;;;;5028502;28;20085;-56
2022/06/30 09:44:35;;;;;;;26.92;22.23;;;24.20;71.00;;;;;;5029243;28;20037;-59
2022/06/30 09:47:06;;;;;;;29.38;22.05;;;24.20;71.00;;;;;;5057019;28;20032;-58
2022/06/30 09:49:42;;;;;;;26.38;20.17;;;24.20;70.40;;;;;;5048437;28;20036;-56
2022/06/30 09:52:20;;;;;;;24.45;20.48;;;24.20;70.00;;;;;;5066446;28;20059;-58
2022/06/30 09:54:54;;;;;;;27.48;19.70;;;24.20;70.50;;;;;;5042978;28;20572;-58
2022/06/30 09:57:20;;;;;;;25.23;19.75;;;24.20;70.20;;;;;;5032424;28;20040;-62
2022/06/30 09:59:45;;;;;;;23.20;18.85;;;24.20;70.10;;;;;;5066887;28;20032;-58
2022/06/30 10:02:11;;;;;;;26.80;19.67;;;24.20;69.90;;;;;;5028581;28;20032;-59
2022/06/30 10:04:55;;;;;;;23.33;20.00;;;24.30;70.50;;;;;;5012763;28;20025;-56
2022/06/30 10:07:21;;;;;;;28.27;21.65;;;24.30;70.80;;;;;;5038958;28;20143;-57
2022/06/30 10:09:51;;;;;;;27.98;23.25;;;24.30;70.80;;;;;;5048506;28;20098;-57
2022/06/30 10:12:24;;;;;;;26.75;22.52;;;24.40;70.90;;;;;;5066018;28;20605;-58
2022/06/30 10:14:50;;;;;;;27.75;21.88;;;24.30;70.70;;;;;;5032263;28;20025;-62
2022/06/30 10:17:26;;;;;;;28.15;22.65;;;24.30;70.10;;;;;;5049303;28;20032;-58
2022/06/30 10:19:52;;;;;;;28.90;22.50;;;24.40;71.00;;;;;;5048062;28;20395;-59
2022/06/30 10:22:19;;;;;;;29.38;22.75;;;24.30;70.80;;;;;;5048508;28;20029;-59
2022/06/30 10:24:45;;;;;;;27.75;21.60;;;24.40;70.50;;;;;;5048438;28;20029;-59
2022/06/30 10:27:12;;;;;;;23.50;19.30;;;24.40;70.60;;;;;;5030708;28;20670;-58
2022/06/30 10:29:38;;;;;;;25.85;19.27;;;24.40;70.30;;;;;;5064861;28;20724;-58
2022/06/30 10:32:12;;;;;;;22.90;17.83;;;24.40;70.10;;;;;;5027516;28;20033;-58
2022/06/30 10:34:40;;;;;;;20.23;17.33;;;24.40;69.80;;;;;;5033542;28;20039;-57
2022/06/30 10:37:15;;;;;;;22.95;19.45;;;24.40;69.90;;;;;;5043470;28;20029;-58
2022/06/30 10:39:47;;;;;;;;;;;24.40;69.50;;;;;;5031858;28;20032;-59
2022/06/30 10:42:50;;;;;;;23.10;17.13;;;24.40;69.50;;;;;;5047065;28;20231;-56
2022/06/30 10:45:30;;;;;;;22.38;17.52;;;24.40;69.60;;;;;;5064654;28;20067;-57
2022/06/30 10:47:59;;;;;;;22.15;18.02;;;24.50;70.10;;;;;;5064268;28;20720;-58
2022/06/30 10:50:41;;;;;;;26.08;18.02;;;24.40;69.90;;;;;;5046626;28;20055;-59
2022/06/30 10:53:08;;;;;;;20.88;17.85;;;24.40;70.30;;;;;;5064390;28;20047;-57
2022/06/30 10:55:52;;;;;;;25.13;18.20;;;24.40;69.60;;;;;;5064433;28;20108;-57
2022/06/30 10:58:19;;;;;;;19.70;17.48;;;24.50;69.40;;;;;;5064391;28;20048;-59
2022/06/30 11:01:02;;;;;;;22.45;16.42;;;24.50;69.00;;;;;;5046657;28;20017;-59
2022/06/30 11:03:34;;;;;;;22.90;18.13;;;24.50;69.20;;;;;;5063772;28;20090;-58
2022/06/30 11:06:05;;;;;;;19.92;17.15;;;24.50;69.80;;;;;;5064043;28;20036;-58
2022/06/30 11:08:38;;;;;;;24.05;17.00;;;24.50;69.40;;;;;;5046087;28;20028;-57
2022/06/30 11:11:22;;;;;;;22.80;17.95;;;24.50;69.90;;;;;;5064000;28;20044;-58
2022/06/30 11:13:48;;;;;;;21.95;18.08;;;24.40;69.60;;;;;;5063942;28;20452;-57
2022/06/30 11:16:14;;;;;;;22.00;17.92;;;24.50;69.60;;;;;;5046463;28;20025;-57
2022/06/30 11:18:40;;;;;;;20.83;17.48;;;24.50;69.80;;;;;;5035509;28;20078;-57
2022/06/30 11:21:05;;;;;;;22.23;16.83;;;24.50;69.60;;;;;;5029506;28;20045;-58
2022/06/30 11:23:40;;;;;;;24.58;18.02;;;24.50;69.50;;;;;;5064305;28;20495;-58
2022/06/30 11:28:53;;;;;;;20.70;16.92;;;24.50;69.40;;;;;;5063676;28;20035;-58
2022/06/30 11:31:23;;;;;;;19.17;17.10;;;24.50;69.20;;;;;;5065301;28;20395;-56
2022/06/30 11:33:56;;;;;;;19.77;17.23;;;24.50;69.40;;;;;;5047076;28;20502;-56
2022/06/30 11:36:22;;;;;;;22.45;17.80;;;24.50;70.10;;;;;;5064566;28;20154;-56
2022/06/30 11:38:58;;;;;;;18.98;16.88;;;24.50;69.70;;;;;;5064335;28;20036;-57
2022/06/30 11:44:12;;;;;;;26.23;18.35;;;24.60;69.70;;;;;;5048662;28;20503;-57
2022/06/30 11:46:53;;;;;;;20.65;16.58;;;24.60;69.30;;;;;;5064219;28;20040;-58
2022/06/30 11:49:19;;;;;;;18.35;16.08;;;24.60;69.20;;;;;;5063481;28;20032;-58
2022/06/30 11:51:45;;;;;;;23.67;17.90;;;24.60;69.20;;;;;;5046388;28;20037;-59
2022/06/30 11:54:11;;;;;;;19.67;17.58;;;24.60;69.60;;;;;;5029191;28;20449;-59
2022/06/30 11:57:02;;;;;;;22.50;17.70;;;24.60;69.10;;;;;;5045938;28;20063;-58
2022/06/30 11:59:28;;;;;;;24.27;15.95;;;24.70;68.80;;;;;;5057740;28;20119;-59
2022/06/30 12:02:06;;;;;;;17.27;14.10;;;24.70;68.50;;;;;;5064106;28;20527;-58
2022/06/30 12:04:33;;;;;;;17.60;11.32;;;24.80;68.50;;;;;;5046196;28;20025;-59
2022/06/30 12:07:01;;;;;;;14.50;12.13;;;24.70;68.00;;;;;;5029226;28;20552;-58
2022/06/30 12:09:26;;;;;;;14.80;9.07;;;24.70;68.00;;;;;;5045923;28;20043;-58
2022/06/30 12:11:52;;;;;;;12.45;10.13;;;24.70;68.20;;;;;;5063700;28;20033;-57
2022/06/30 12:14:18;;;;;;;14.30;10.32;;;24.70;67.90;;;;;;5042843;28;20141;-59
2022/06/30 12:16:43;;;;;;;16.08;10.50;;;24.70;67.70;;;;;;5029953;28;20758;-58
2022/06/30 12:19:15;;;;;;;19.50;11.73;;;24.60;67.90;;;;;;5034841;28;20165;-59
2022/06/30 12:21:40;;;;;;;14.68;11.18;;;24.70;68.20;;;;;;5046923;28;20514;-58
2022/06/30 12:24:07;;;;;;;20.08;13.10;;;24.60;68.30;;;;;;5029807;28;20033;-58
2022/06/30 12:26:33;;;;;;;17.90;12.15;;;24.70;68.20;;;;;;5029412;28;20048;-58
2022/06/30 12:28:58;;;;;;;23.95;11.88;;;24.70;67.70;;;;;;5062050;28;20075;-57
2022/06/30 12:31:28;;;;;;;17.00;11.93;;;24.70;67.90;;;;;;5064013;28;20042;-57
2022/06/30 12:33:58;;;;;;;16.77;10.48;;;24.70;67.70;;;;;;5029323;28;20056;-57
2022/06/30 12:36:23;;;;;;;22.42;12.40;;;24.70;67.70;;;;;;5063896;28;20049;-58
2022/06/30 12:38:49;;;;;;;13.93;11.45;;;24.70;68.50;;;;;;5043984;28;20055;-58
2022/06/30 12:41:15;;;;;;;15.30;11.27;;;24.70;67.50;;;;;;5028952;28;20033;-56
2022/06/30 12:43:50;;;;;;;12.20;9.43;;;24.70;67.10;;;;;;5043389;28;20040;-58
2022/06/30 12:46:19;;;;;;;16.83;10.82;;;24.70;66.80;;;;;;5038896;28;20090;-58
2022/06/30 12:48:48;;;;;;;16.33;10.45;;;24.80;67.30;;;;;;5062688;28;20029;-57
2022/06/30 12:51:40;;;;;;;14.73;10.40;;;24.80;67.20;;;;;;5043347;28;20032;-58